createdAt,value
2019-04-16T00:02:44.194Z,67.40
2019-04-16T00:05:37.322Z,68.10
2019-04-16T00:08:26.628Z,68.10
2019-04-16T00:10:49.943Z,68.10
2019-04-16T00:13:45.214Z,68.20
2019-04-16T00:16:15.719Z,68.00
2019-04-16T00:18:56.614Z,68.30
2019-04-16T00:21:38.408Z,68.30
2019-04-16T00:24:22.823Z,68.30
2019-04-16T00:26:57.839Z,68.50
2019-04-16T00:29:32.682Z,68.70
2019-04-16T00:32:09.071Z,69.10
2019-04-16T00:34:38.735Z,68.60
2019-04-16T00:37:09.843Z,68.90
2019-04-16T00:39:40.384Z,68.50
2019-04-16T00:42:11.109Z,68.60
2019-04-16T00:44:41.619Z,68.50
2019-04-16T00:47:12.206Z,69.20
2019-04-16T00:49:43.014Z,68.60
2019-04-16T00:52:13.625Z,68.80
2019-04-16T00:54:44.087Z,68.70
2019-04-16T00:57:17.631Z,68.90
2019-04-16T00:59:47.127Z,69.20
2019-04-16T01:02:17.819Z,69.50
2019-04-16T01:04:48.271Z,69.80
2019-04-16T01:07:18.832Z,70.40
2019-04-16T01:09:49.626Z,69.00
2019-04-16T01:12:20.437Z,68.70
2019-04-16T01:14:51.130Z,68.50
2019-04-16T01:17:21.725Z,68.10
2019-04-16T01:19:52.336Z,68.20
2019-04-16T01:22:22.861Z,68.20
2019-04-16T01:24:54.274Z,68.00
2019-04-16T01:27:32.604Z,67.90
2019-04-16T01:30:06.166Z,68.60
2019-04-16T01:32:55.176Z,68.50
2019-04-16T01:36:01.316Z,68.20
2019-04-16T01:38:40.626Z,68.30
2019-04-16T01:41:15.927Z,68.10
2019-04-16T01:43:46.505Z,68.00
2019-04-16T01:46:17.229Z,68.00
2019-04-16T01:48:48.091Z,68.30
2019-04-16T01:51:18.771Z,68.20
2019-04-16T01:53:52.354Z,67.70
2019-04-16T01:56:22.377Z,68.30
2019-04-16T01:58:53.216Z,69.30
2019-04-16T02:01:23.930Z,69.50
2019-04-16T02:03:54.585Z,69.40
2019-04-16T02:06:25.922Z,69.20
2019-04-16T02:09:01.772Z,68.60
2019-04-16T02:11:29.717Z,68.70
2019-04-16T02:14:00.730Z,68.80
2019-04-16T02:16:33.242Z,68.60
2019-04-16T02:19:04.102Z,68.80
2019-04-16T02:21:34.951Z,69.10
2019-04-16T02:24:05.643Z,69.20
2019-04-16T02:26:36.583Z,69.50
2019-04-16T02:29:07.335Z,69.60
2019-04-16T02:31:38.011Z,69.50
2019-04-16T02:34:08.812Z,69.50
2019-04-16T02:36:39.346Z,69.60
2019-04-16T02:39:10.123Z,69.50
2019-04-16T02:41:40.962Z,69.50
2019-04-16T02:44:16.454Z,69.70
2019-04-16T02:46:44.303Z,70.50
2019-04-16T02:49:14.879Z,71.40
2019-04-16T02:52:04.279Z,71.30
2019-04-16T02:54:45.514Z,72.00
2019-04-16T02:57:38.134Z,72.20
2019-04-16T03:00:22.950Z,72.00
2019-04-16T03:02:59.418Z,72.50
2019-04-16T03:05:36.356Z,72.80
2019-04-16T03:08:07.438Z,73.20
2019-04-16T03:10:38.386Z,73.30
2019-04-16T03:13:09.659Z,73.60
2019-04-16T03:16:08.773Z,73.70
2019-04-16T03:18:48.302Z,74.30
2019-04-16T03:21:20.487Z,74.50
2019-04-16T03:23:51.073Z,74.60
2019-04-16T03:26:22.153Z,74.60
2019-04-16T03:28:55.685Z,74.10
2019-04-16T03:31:26.137Z,73.80
2019-04-16T03:33:56.631Z,74.00
2019-04-16T03:36:29.563Z,74.70
2019-04-16T03:39:00.683Z,74.20
2019-04-16T03:41:32.902Z,74.30
2019-04-16T03:44:04.209Z,74.20
2019-04-16T03:46:36.089Z,74.00
2019-04-16T03:49:06.710Z,74.10
2019-04-16T03:51:37.532Z,74.20
2019-04-16T03:54:08.363Z,74.20
2019-04-16T03:56:39.099Z,74.10
2019-04-16T03:59:11.594Z,74.10
2019-04-16T04:01:45.558Z,74.20
2019-04-16T04:04:14.982Z,74.30
2019-04-16T04:06:45.651Z,74.50
2019-04-16T04:09:18.958Z,74.40
2019-04-16T04:11:48.883Z,74.20
2019-04-16T04:14:23.333Z,73.50
2019-04-16T04:16:52.320Z,72.40
2019-04-16T04:19:23.132Z,72.00
2019-04-16T04:21:54.478Z,71.10
2019-04-16T04:24:28.495Z,70.50
2019-04-16T04:26:59.204Z,69.90
2019-04-16T04:29:30.268Z,70.00
2019-04-16T04:32:03.453Z,69.00
2019-04-16T04:34:33.532Z,68.60
2019-04-16T04:37:04.672Z,66.50
2019-04-16T04:39:35.471Z,66.30
2019-04-16T04:42:06.249Z,66.50
2019-04-16T04:44:37.321Z,66.20
2019-04-16T04:47:08.097Z,66.10
2019-04-16T04:49:39.253Z,65.60
2019-04-16T04:52:13.605Z,65.20
2019-04-16T04:54:42.605Z,64.50
2019-04-16T04:57:13.755Z,62.10
2019-04-16T04:59:44.699Z,59.70
2019-04-16T05:02:15.490Z,59.00
2019-04-16T05:05:04.398Z,57.30
2019-04-16T05:07:35.295Z,55.00
2019-04-16T05:10:07.457Z,53.40
2019-04-16T05:12:39.093Z,55.30
2019-04-16T05:15:11.526Z,52.90
2019-04-16T05:17:42.539Z,53.50
2019-04-16T05:20:16.280Z,54.10
2019-04-16T05:22:47.379Z,51.00
2019-04-16T05:25:18.536Z,51.50
2019-04-16T05:27:49.812Z,49.60
2019-04-16T05:30:21.774Z,47.20
2019-04-16T05:32:52.635Z,47.20
2019-04-16T05:35:23.802Z,45.70
2019-04-16T05:37:54.790Z,45.90
2019-04-16T05:40:27.626Z,46.40
2019-04-16T05:43:01.310Z,46.30
2019-04-16T05:45:34.411Z,45.60
2019-04-16T05:48:05.490Z,44.80
2019-04-16T05:50:36.568Z,43.00
2019-04-16T05:53:08.374Z,44.80
2019-04-16T05:55:57.408Z,44.10
2019-04-16T05:58:27.773Z,41.90
2019-04-16T06:01:14.392Z,42.60
2019-04-16T06:03:45.150Z,43.00
2019-04-16T06:06:15.773Z,41.60
2019-04-16T06:08:46.452Z,42.50
2019-04-16T06:11:28.116Z,42.30
2019-04-16T06:14:17.024Z,42.30
2019-04-16T06:17:15.784Z,42.80
2019-04-16T06:20:20.539Z,43.20
2019-04-16T06:23:15.081Z,43.60
2019-04-16T06:25:49.453Z,44.90
2019-04-16T06:28:44.969Z,42.00
2019-04-16T06:31:39.393Z,42.10
2019-04-16T06:34:36.061Z,40.90
2019-04-16T06:37:28.079Z,39.20
2019-04-16T06:40:18.139Z,36.90
2019-04-16T06:42:54.844Z,37.60
2019-04-16T06:45:39.650Z,36.80
2019-04-16T06:48:13.813Z,35.90
2019-04-16T06:51:02.136Z,35.20
2019-04-16T06:53:53.976Z,36.80
2019-04-16T06:56:45.461Z,38.20
2019-04-16T06:59:30.935Z,38.20
2019-04-16T07:02:19.422Z,38.80
2019-04-16T07:05:08.984Z,37.30
2019-04-16T07:07:47.028Z,37.00
2019-04-16T07:10:20.190Z,36.50
2019-04-16T07:12:52.499Z,36.30
2019-04-16T07:15:28.154Z,36.40
2019-04-16T07:17:56.215Z,36.10
2019-04-16T07:20:26.776Z,35.40
2019-04-16T07:22:57.652Z,35.90
2019-04-16T07:25:29.580Z,35.30
2019-04-16T07:28:12.241Z,35.90
2019-04-16T07:31:10.740Z,35.80
2019-04-16T07:34:02.238Z,35.50
2019-04-16T07:36:36.484Z,35.10
2019-04-16T07:39:42.720Z,35.00
2019-04-16T07:42:26.334Z,34.40
2019-04-16T07:45:13.180Z,32.30
2019-04-16T07:48:06.126Z,32.40
2019-04-16T07:50:53.062Z,31.80
2019-04-16T07:53:53.561Z,32.10
2019-04-16T07:56:25.953Z,33.00
2019-04-16T07:59:00.163Z,32.60
2019-04-16T08:01:28.974Z,32.50
2019-04-16T08:04:01.384Z,30.80
2019-04-16T08:06:32.566Z,29.50
2019-04-16T08:09:03.607Z,28.10
2019-04-16T08:11:35.472Z,28.90
2019-04-16T08:14:09.796Z,28.80
2019-04-16T08:16:47.102Z,29.60
2019-04-16T08:19:12.276Z,29.50
2019-04-16T08:21:44.284Z,30.00
2019-04-16T08:24:24.396Z,30.40
2019-04-16T08:26:52.684Z,29.50
2019-04-16T08:29:26.343Z,27.70
2019-04-16T08:31:55.835Z,27.80
2019-04-16T08:34:26.561Z,29.50
2019-04-16T08:36:57.426Z,29.50
2019-04-16T08:39:28.106Z,29.90
2019-04-16T08:41:58.847Z,29.70
2019-04-16T08:44:29.569Z,28.30
2019-04-16T08:47:00.085Z,28.00
2019-04-16T08:49:30.929Z,28.70
2019-04-16T08:52:01.870Z,29.30
2019-04-16T08:54:32.471Z,29.20
2019-04-16T08:57:03.315Z,28.90
2019-04-16T08:59:34.325Z,28.90
2019-04-16T09:02:05.012Z,29.70
2019-04-16T09:04:35.522Z,30.30
2019-04-16T09:07:12.066Z,29.60
2019-04-16T09:09:50.373Z,30.00
2019-04-16T09:12:20.977Z,29.40
2019-04-16T09:14:55.948Z,29.30
2019-04-16T09:17:31.983Z,29.70
2019-04-16T09:20:08.269Z,29.50
2019-04-16T09:22:48.731Z,30.00
2019-04-16T09:25:46.692Z,29.10
2019-04-16T09:28:36.900Z,28.90
2019-04-16T09:31:28.495Z,30.20
2019-04-16T09:34:15.725Z,30.60
2019-04-16T09:37:08.366Z,31.30
2019-04-16T09:39:56.648Z,31.40
2019-04-16T09:42:27.135Z,31.70
2019-04-16T09:44:57.856Z,31.30
2019-04-16T09:47:28.940Z,30.90
2019-04-16T09:50:01.019Z,30.60
2019-04-16T09:52:31.815Z,31.40
2019-04-16T09:55:03.033Z,30.60
2019-04-16T09:57:33.537Z,30.60
2019-04-16T10:00:08.405Z,30.80
2019-04-16T10:02:40.953Z,30.60
2019-04-16T10:05:12.030Z,30.10
2019-04-16T10:07:42.650Z,29.60
2019-04-16T10:10:13.450Z,29.70
2019-04-16T10:12:46.763Z,31.10
2019-04-16T10:15:17.624Z,30.30
2019-04-16T10:17:48.463Z,30.20
2019-04-16T10:20:19.341Z,30.30
2019-04-16T10:22:49.881Z,30.20
2019-04-16T10:25:20.444Z,31.20
2019-04-16T10:28:12.958Z,31.60
2019-04-16T10:30:54.123Z,31.50
2019-04-16T10:33:24.807Z,30.20
2019-04-16T10:35:57.469Z,30.60
2019-04-16T10:38:47.200Z,32.40
2019-04-16T10:41:38.340Z,32.60
2019-04-16T10:44:16.717Z,33.00
2019-04-16T10:47:19.732Z,33.30
2019-04-16T10:50:17.302Z,34.00
2019-04-16T10:53:07.172Z,34.20
2019-04-16T10:55:55.929Z,33.70
2019-04-16T10:58:44.872Z,33.10
2019-04-16T11:01:32.947Z,33.50
2019-04-16T11:04:28.024Z,33.00
2019-04-16T11:07:03.125Z,34.70
2019-04-16T11:09:33.748Z,33.30
2019-04-16T11:12:05.277Z,32.90
2019-04-16T11:14:36.554Z,33.20
2019-04-16T11:17:07.643Z,33.70
2019-04-16T11:19:38.510Z,32.40
2019-04-16T11:22:09.552Z,32.10
2019-04-16T11:24:40.649Z,30.30
2019-04-16T11:27:11.533Z,31.50
2019-04-16T11:29:42.742Z,32.50
2019-04-16T11:32:15.651Z,32.80
2019-04-16T11:34:46.964Z,31.70
2019-04-16T11:37:17.464Z,31.50
2019-04-16T11:39:48.549Z,31.10
2019-04-16T11:42:19.037Z,31.30
2019-04-16T11:44:51.037Z,30.50
2019-04-16T11:47:21.563Z,31.80
2019-04-16T11:49:52.199Z,32.10
2019-04-16T11:52:23.056Z,32.50
2019-04-16T11:54:53.810Z,32.90
2019-04-16T11:57:24.397Z,32.50
2019-04-16T12:00:06.409Z,32.30
2019-04-16T12:02:38.899Z,32.20
2019-04-16T12:05:37.679Z,32.20
2019-04-16T12:08:22.862Z,32.90
2019-04-16T12:11:12.711Z,32.40
2019-04-16T12:14:08.809Z,30.80
2019-04-16T12:16:46.023Z,31.80
2019-04-16T12:19:34.563Z,31.30
2019-04-16T12:22:10.637Z,30.00
2019-04-16T12:25:03.197Z,30.90
2019-04-16T12:27:51.875Z,30.10
2019-04-16T12:30:52.098Z,30.00
2019-04-16T12:33:41.703Z,30.80
2019-04-16T12:36:29.818Z,30.30
2019-04-16T12:39:18.385Z,31.80
2019-04-16T12:42:05.103Z,31.30
2019-04-16T12:44:53.626Z,31.50
2019-04-16T12:47:41.136Z,31.20
2019-04-16T12:50:34.743Z,30.10
2019-04-16T12:53:27.617Z,30.90
2019-04-16T12:56:40.145Z,32.00
2019-04-16T12:59:35.351Z,32.00
2019-04-16T13:02:30.856Z,32.50
2019-04-16T13:05:10.932Z,32.00
2019-04-16T13:08:07.821Z,31.50
2019-04-16T13:10:54.906Z,31.40
2019-04-16T13:13:56.302Z,30.90
2019-04-16T13:16:39.071Z,30.20
2019-04-16T13:19:27.352Z,29.50
2019-04-16T13:22:00.081Z,29.80
2019-04-16T13:24:44.532Z,30.20
2019-04-16T13:27:20.777Z,30.20
2019-04-16T13:29:51.389Z,30.70
2019-04-16T13:32:21.974Z,31.20
2019-04-16T13:34:52.841Z,31.40
2019-04-16T13:37:23.552Z,31.80
2019-04-16T13:40:05.800Z,32.00
2019-04-16T13:42:36.705Z,32.10
2019-04-16T13:45:27.803Z,32.10
2019-04-16T13:48:14.851Z,32.10
2019-04-16T13:50:40.485Z,30.30
2019-04-16T13:53:47.383Z,29.90
2019-04-16T13:56:30.040Z,30.30
2019-04-16T13:59:31.744Z,30.20
2019-04-16T14:02:27.200Z,30.80
2019-04-16T14:05:03.055Z,31.10
2019-04-16T14:07:32.203Z,31.40
2019-04-16T14:10:03.183Z,31.50
2019-04-16T14:12:42.073Z,31.90
2019-04-16T14:15:08.091Z,32.20
2019-04-16T14:17:51.769Z,31.60
2019-04-16T14:20:13.464Z,32.00
2019-04-16T14:22:44.647Z,31.80
2019-04-16T14:25:15.849Z,31.90
2019-04-16T14:27:46.785Z,33.70
2019-04-16T14:30:20.532Z,33.00
2019-04-16T14:32:51.206Z,32.40
2019-04-16T14:35:32.927Z,33.00
2019-04-16T14:37:57.829Z,32.00
2019-04-16T14:40:29.059Z,32.90
2019-04-16T14:42:59.937Z,33.30
2019-04-16T14:45:59.194Z,33.20
2019-04-16T14:48:27.891Z,32.80
2019-04-16T14:50:58.774Z,32.70
2019-04-16T14:53:44.313Z,32.20
2019-04-16T14:56:40.019Z,32.30
2019-04-16T14:59:38.628Z,32.50
2019-04-16T15:02:30.734Z,32.10
2019-04-16T15:05:15.514Z,31.90
2019-04-16T15:08:10.989Z,32.00
2019-04-16T15:11:07.956Z,31.80
2019-04-16T15:13:58.663Z,32.00
2019-04-16T15:16:55.594Z,31.50
2019-04-16T15:19:39.002Z,31.60
2019-04-16T15:22:27.620Z,31.30
2019-04-16T15:25:32.808Z,31.30
2019-04-16T15:28:12.565Z,30.90
2019-04-16T15:31:08.047Z,30.30
2019-04-16T15:34:00.715Z,30.00
2019-04-16T15:36:35.666Z,29.30
2019-04-16T15:39:14.348Z,29.10
2019-04-16T15:42:04.189Z,29.00
2019-04-16T15:44:41.869Z,29.50
2019-04-16T15:47:42.955Z,29.50
2019-04-16T15:50:29.447Z,30.10
2019-04-16T15:53:22.805Z,30.60
2019-04-16T15:56:02.691Z,31.30
2019-04-16T15:58:46.304Z,31.50
2019-04-16T16:01:32.011Z,31.30
2019-04-16T16:04:11.818Z,31.50
2019-04-16T16:06:48.764Z,31.80
2019-04-16T16:09:23.552Z,31.60
2019-04-16T16:12:01.282Z,31.80
2019-04-16T16:14:34.588Z,31.30
2019-04-16T16:17:04.564Z,31.40
2019-04-16T16:19:35.474Z,31.20
2019-04-16T16:22:11.090Z,31.50
2019-04-16T16:24:42.060Z,30.90
2019-04-16T16:27:11.137Z,31.00
2019-04-16T16:29:42.082Z,30.20
2019-04-16T16:32:12.722Z,30.20
2019-04-16T16:34:44.728Z,30.50
2019-04-16T16:37:15.649Z,30.30
2019-04-16T16:39:46.690Z,30.70
2019-04-16T16:42:18.381Z,30.00
2019-04-16T16:44:49.141Z,30.30
2019-04-16T16:47:44.999Z,30.30
2019-04-16T16:50:17.465Z,30.30
2019-04-16T16:53:06.998Z,30.20
2019-04-16T16:55:47.903Z,29.70
2019-04-16T16:58:46.496Z,29.70
2019-04-16T17:01:42.662Z,29.90
2019-04-16T17:04:16.480Z,29.80
2019-04-16T17:06:47.157Z,29.80
2019-04-16T17:09:31.209Z,29.60
2019-04-16T17:12:02.241Z,30.00
2019-04-16T17:14:36.413Z,30.10
2019-04-16T17:17:14.318Z,30.00
2019-04-16T17:19:37.837Z,30.20
2019-04-16T17:22:08.505Z,30.00
2019-04-16T17:24:39.129Z,30.30
2019-04-16T17:27:10.065Z,30.70
2019-04-16T17:29:40.716Z,30.30
2019-04-16T17:32:12.361Z,30.80
2019-04-16T17:34:43.364Z,31.10
2019-04-16T17:37:14.665Z,31.40
2019-04-16T17:39:52.863Z,32.20
2019-04-16T17:42:36.984Z,32.70
2019-04-16T17:45:34.028Z,33.00
2019-04-16T17:48:14.742Z,33.30
2019-04-16T17:51:07.453Z,33.80
2019-04-16T17:53:50.516Z,33.70
2019-04-16T17:56:38.849Z,33.70
2019-04-16T17:59:29.062Z,33.70
2019-04-16T18:02:18.136Z,33.50
2019-04-16T18:05:07.653Z,33.40
2019-04-16T18:07:59.626Z,33.60
2019-04-16T18:10:48.973Z,33.40
2019-04-16T18:13:42.949Z,33.20
2019-04-16T18:16:50.068Z,33.30
2019-04-16T18:19:46.200Z,33.50
2019-04-16T18:22:38.093Z,33.30
2019-04-16T18:25:36.709Z,34.20
2019-04-16T18:28:12.167Z,44.60
2019-04-16T18:30:53.967Z,48.00
2019-04-16T18:33:46.911Z,50.70
2019-04-16T18:36:48.781Z,54.20
2019-04-16T18:39:37.209Z,58.10
2019-04-16T18:42:19.163Z,59.60
2019-04-16T18:45:11.933Z,61.90
2019-04-16T18:48:04.551Z,63.80
2019-04-16T18:50:31.156Z,65.50
2019-04-16T18:53:03.168Z,67.00
2019-04-16T18:55:34.266Z,68.10
2019-04-16T18:58:05.631Z,69.30
2019-04-16T19:00:42.434Z,70.50
2019-04-16T19:03:14.970Z,71.50
2019-04-16T19:05:46.061Z,71.90
2019-04-16T19:08:17.012Z,72.10
2019-04-16T19:10:48.901Z,72.70
2019-04-16T19:13:20.306Z,72.70
2019-04-16T19:15:51.199Z,73.10
2019-04-16T19:18:22.100Z,73.50
2019-04-16T19:20:53.470Z,73.60
2019-04-16T19:23:24.486Z,73.90
2019-04-16T19:25:56.731Z,74.00
2019-04-16T19:28:29.013Z,74.40
2019-04-16T19:30:59.996Z,74.00
2019-04-16T19:33:37.794Z,75.20
2019-04-16T19:36:04.853Z,75.90
2019-04-16T19:38:39.343Z,76.60
2019-04-16T19:41:09.334Z,77.40
2019-04-16T19:43:41.049Z,78.30
2019-04-16T19:46:15.541Z,78.80
2019-04-16T19:48:45.664Z,79.50
2019-04-16T19:51:19.557Z,80.00
2019-04-16T19:53:49.566Z,80.40
2019-04-16T19:56:20.805Z,81.20
2019-04-16T19:58:52.439Z,81.60
2019-04-16T20:01:24.975Z,81.60
2019-04-16T20:03:55.827Z,82.40
2019-04-16T20:06:27.047Z,82.60
2019-04-16T20:08:58.143Z,82.00
2019-04-16T20:11:29.032Z,82.50
2019-04-16T20:14:02.713Z,82.80
2019-04-16T20:16:33.751Z,82.80
2019-04-16T20:19:04.949Z,83.60
2019-04-16T20:21:37.863Z,84.10
2019-04-16T20:24:08.723Z,84.60
2019-04-16T20:26:39.519Z,85.50
2019-04-16T20:29:10.583Z,85.70
2019-04-16T20:31:41.769Z,86.50
2019-04-16T20:34:13.270Z,87.90
2019-04-16T20:36:44.162Z,88.80
2019-04-16T20:39:14.826Z,88.90
2019-04-16T20:41:52.790Z,89.50
2019-04-16T20:44:20.203Z,90.30
2019-04-16T20:46:51.606Z,90.80
2019-04-16T20:49:22.588Z,90.40
2019-04-16T20:51:56.601Z,90.30
2019-04-16T20:54:27.477Z,91.20
2019-04-16T20:56:58.121Z,91.10
2019-04-16T20:59:29.172Z,90.90
2019-04-16T21:02:00.395Z,90.80
2019-04-16T21:04:32.029Z,90.90
2019-04-16T21:07:02.904Z,91.30
2019-04-16T21:09:33.653Z,91.30
2019-04-16T21:12:04.452Z,91.60
2019-04-16T21:14:36.199Z,91.90
2019-04-16T21:17:07.747Z,91.90
2019-04-16T21:19:46.501Z,92.20
2019-04-16T21:22:18.661Z,92.00
2019-04-16T21:24:49.539Z,91.90
2019-04-16T21:27:20.459Z,92.10
2019-04-16T21:29:51.221Z,91.80
2019-04-16T21:32:39.766Z,91.80
2019-04-16T21:35:16.357Z,91.80
2019-04-16T21:37:52.932Z,91.80
2019-04-16T21:40:24.116Z,91.70
2019-04-16T21:42:55.228Z,91.70
2019-04-16T21:45:26.255Z,92.00
2019-04-16T21:47:57.227Z,92.40
2019-04-16T21:50:28.410Z,92.40
2019-04-16T21:52:59.329Z,92.60
2019-04-16T21:55:32.809Z,92.90
2019-04-16T21:58:03.504Z,92.80
2019-04-16T22:01:02.366Z,92.20
2019-04-16T22:03:30.204Z,92.90
2019-04-16T22:06:01.132Z,92.70
2019-04-16T22:08:32.065Z,92.70
2019-04-16T22:11:03.054Z,92.90
2019-04-16T22:13:33.879Z,92.70
2019-04-16T22:16:04.762Z,92.50
2019-04-16T22:18:37.672Z,92.50
2019-04-16T22:21:10.964Z,92.70
2019-04-16T22:23:40.542Z,92.70
2019-04-16T22:26:11.396Z,93.10
2019-04-16T22:28:44.398Z,93.20
2019-04-16T22:31:14.839Z,93.00
2019-04-16T22:33:45.641Z,93.10
2019-04-16T22:36:16.197Z,93.10
2019-04-16T22:38:50.101Z,93.10
2019-04-16T22:41:34.783Z,92.70
2019-04-16T22:44:39.777Z,92.80
2019-04-16T22:47:13.655Z,92.80
2019-04-16T22:49:44.612Z,92.70
2019-04-16T22:52:15.259Z,92.60
2019-04-16T22:54:46.834Z,92.80
2019-04-16T22:57:19.598Z,92.70
2019-04-16T22:59:50.311Z,92.80
2019-04-16T23:02:27.139Z,92.60
2019-04-16T23:04:59.481Z,92.70
2019-04-16T23:07:31.024Z,92.70
2019-04-16T23:10:02.018Z,93.10
2019-04-16T23:12:33.895Z,93.00
2019-04-16T23:15:05.436Z,93.50
2019-04-16T23:17:36.570Z,93.30
2019-04-16T23:20:07.563Z,93.30
2019-04-16T23:22:38.477Z,93.20
2019-04-16T23:25:09.157Z,93.50
2019-04-16T23:27:39.762Z,92.80
2019-04-16T23:30:10.864Z,93.10
2019-04-16T23:32:41.417Z,93.50
2019-04-16T23:35:12.058Z,93.50
2019-04-16T23:37:42.876Z,93.30
2019-04-16T23:40:13.390Z,93.90
2019-04-16T23:42:57.990Z,93.70
2019-04-16T23:46:01.360Z,93.60
2019-04-16T23:48:50.979Z,93.80
2019-04-16T23:51:29.907Z,93.70
2019-04-16T23:54:07.966Z,93.70
2019-04-16T23:56:52.952Z,93.40
2019-04-16T23:59:43.234Z,93.40
